ソチ空港の過去48時間の天気

ソチ空港 (Adler)

現在時刻: 7/19 03:07 MSK (7/19 00:07 UTC) 以下の時間は現地時間です。

過去48時間のMETAR気象情報
時間 風向 風速(m/s) 視程 気温(℃) 湿度(%) 気圧(hPa) 天気現象
19 02:30 4 10km以上 20 83 1004
19 02:00 東北東 4 10km以上 20 83 1004
19 01:30 4 10km以上 20 83 1004
19 01:00 東北東 4 10km以上 20 83 1004
19 00:30 東北東 4 10km以上 20 83 1004
19 00:00 東北東 3 10km以上 20 88 1003
18 23:30 北東 3 10km以上 21 83 1004
18 23:00 北東 3 10km以上 21 88 1004
18 22:30 東北東 2 10km以上 21 88 1004
18 22:00 2 10km以上 22 88 1004
18 21:30 北東 2 10km以上 22 88 1004
18 21:00 北東 2 10km以上 23 83 1004
18 20:30 1 10km以上 24 78 1003
18 20:00 西北西 2 10km以上 25 74 1003
18 19:30 西北西 3 10km以上 25 74 1003
18 19:00 西北西 3 10km以上 26 70 1003
18 18:30 西北西 3 10km以上 26 70 1003
18 18:00 西北西 4 10km以上 26 70 1003
18 17:30 西北西 4 10km以上 26 65 1003
18 17:00 西北西 3 10km以上 27 66 1004
18 16:30 西北西 4 10km以上 27 62 1004
18 16:00 西 4 10km以上 27 62 1004
18 15:30 西 4 10km以上 27 62 1004
18 15:00 西 4 10km以上 26 65 1004
18 14:30 西南西 4 10km以上 27 62 1004
18 14:00 西南西 3 10km以上 28 58 1005
18 13:30 西 3 10km以上 27 62 1005
18 13:00 西 3 10km以上 27 58 1005
18 12:30 西 3 10km以上 27 58 1005
18 12:00 西 3 10km以上 27 54 1005
18 11:30 南西 3 10km以上 27 51 1005
18 11:00 南南西 4 10km以上 27 51 1006
18 10:30 西南西 3 10km以上 27 51 1006
18 10:00 北北西 1 10km以上 26 54 1006
18 09:30 2 10km以上 26 54 1006
18 09:00 北東 2 10km以上 25 61 1006
18 08:30 北北東 4 10km以上 24 61 1007
18 08:00 北東 4 10km以上 23 65 1007
18 07:30 東北東 4 10km以上 23 69 1007
18 07:00 東北東 4 10km以上 22 69 1007
18 06:30 東北東 4 10km以上 21 73 1007
18 06:00 東北東 2 10km以上 20 73 1007
18 05:30 5 10km以上 19 78 1007
18 05:00 7 10km以上 19 78 1007
18 04:30 6 10km以上 19 83 1007
18 04:00 6 10km以上 19 83 1007
18 03:30 6 10km以上 19 83 1007
18 03:00 6 10km以上 19 88 1007
18 02:30 東北東 5 10km以上 20 83 1007
18 02:00 6 10km以上 20 83 1007
18 01:30 6 10km以上 20 83 1008
18 01:00 東北東 6 10km以上 20 83 1008
18 00:30 6 10km以上 20 88 1009
18 00:00 東北東 5 10km以上 20 88 1009
17 23:30 北東 4 10km以上 20 88 1009
17 23:00 北東 3 10km以上 20 88 1009
17 22:30 北東 4 10km以上 21 83 1009
17 22:00 北東 3 10km以上 21 88 1009
17 21:30 北東 3 10km以上 21 88 1009
17 21:00 北東 3 10km以上 21 88 1009
17 20:30 静穏 0 10km以上 22 83 1009
17 20:00 静穏 0 10km以上 23 78 1009
17 19:30 2 10km以上 25 69 1009
17 19:00 2 10km以上 25 69 1009
17 18:30 3 10km以上 25 69 1009
17 18:00 3 10km以上 25 69 1009
17 17:30 4 10km以上 26 65 1009
17 17:00 4 10km以上 26 70 1009
17 16:30 南南東 5 10km以上 26 65 1009
17 16:00 5 10km以上 26 70 1009
17 15:30 南南東 5 10km以上 26 70 1009
17 15:00 南南東 5 10km以上 26 61 1009
17 14:30 5 10km以上 26 58 1009
17 14:00 6 10km以上 25 69 1009
17 13:30 南南東 7 10km以上 25 69 1009
17 13:00 6 10km以上 24 78 1009
17 12:30 南南東 7 10km以上 25 69 1009
17 12:00 南東 7 10km以上 25 69 1009
17 11:30 南南東 7 10km以上 26 61 1009
17 11:00 南南東 6 10km以上 25 65 1009
17 10:30 南南東 7 10km以上 24 74 1009
17 10:00 南南東 7 10km以上 24 65 1009
17 09:30 南東 5 10km以上 25 65 1008
17 09:00 南南東 4 10km以上 24 61 1009
17 08:30 北東 3 10km以上 23 65 1009
17 08:00 北東 4 10km以上 22 69 1009
17 07:30 北東 3 10km以上 20 83 1009
17 07:00 北東 4 10km以上 21 78 1009
17 06:30 北東 3 10km以上 19 88 1009
17 06:00 北東 3 10km以上 18 88 1009
17 05:30 東北東 4 10km以上 18 88 1008
17 05:00 北東 3 10km以上 18 88 1008
17 04:30 北東 3 10km以上 18 88 1008
17 04:00 北東 3 10km以上 18 88 1008
17 03:30 東北東 2 10km以上 18 94 1009 周辺で雷
URSS 182330Z 08004MPS 9999 FEW120 20/17 Q1004 R06/090070 R02/090070 NOSIG RMK R02/05004MPS QFE752
URSS 182300Z 07004MPS 9999 NSC 20/17 Q1004 R06/090070 R02/090070 NOSIG RMK R02/04003MPS QFE752
URSS 182230Z 08004MPS 9999 NSC 20/17 Q1004 R06/090070 R02/090070 NOSIG RMK R02/05003MPS QFE752
URSS 182200Z 07004MPS 9999 NSC 20/17 Q1004 R06/090070 R02/090070 NOSIG RMK R02/05003MPS QFE752
URSS 182130Z 07004MPS 9999 NSC 20/17 Q1004 R06/090070 R02/090070 NOSIG RMK R02/04002MPS QFE752
URSS 182100Z 06003MPS 330V070 9999 NSC 20/18 Q1003 R06/090070 R02/090070 NOSIG RMK R02/05003MPS QFE751
URSS 182030Z 05003MPS 9999 NSC 21/18 Q1004 R02/090070 R06/090070 NOSIG RMK R06/00000MPS QFE751
URSS 182000Z 05003MPS 9999 NSC 21/19 Q1004 R02/090070 R06/090070 NOSIG RMK R06/07003MPS QFE751
URSS 181930Z 06002MPS 9999 NSC 21/19 Q1004 R02/090070 R06/090070 NOSIG RMK R06/33001MPS QFE751
URSS 181900Z 08002MPS 9999 NSC 22/20 Q1004 R02/090070 R06/090070 NOSIG RMK R06/36001MPS QFE751
URSS 181830Z 05002MPS 9999 NSC 22/20 Q1004 R02/090070 R06/090070 NOSIG RMK R06/36001G04MPS QFE751
URSS 181800Z 04002MPS 9999 NSC 23/20 Q1004 R02/090070 R06/090070 NOSIG RMK R06/33002G05MPS QFE751
URSS 181730Z 36001MPS 9999 NSC 24/20 Q1003 R02/090070 R06/090070 NOSIG RMK R06/33002MPS QFE751
URSS 181700Z 30002MPS 260V350 9999 NSC 25/20 Q1003 R02/090070 R06/090070 NOSIG RMK R06/30004G07MPS QFE751
URSS 181630Z 29003MPS 9999 NSC 25/20 Q1003 R02/090070 R06/090070 NOSIG RMK R06/31004MPS QFE751
URSS 181600Z 29003MPS 9999 NSC 26/20 Q1003 R02/090070 R06/090070 NOSIG RMK R06/31005MPS QFE751
URSS 181530Z 29003MPS 9999 FEW050 26/20 Q1003 R02/090070 R06/090070 NOSIG RMK R06/30004G07MPS QFE751
URSS 181500Z 29004MPS 9999 FEW050 26/20 Q1003 R02/090070 R06/090070 NOSIG RMK R06/31005MPS QFE751
URSS 181430Z 30004MPS 9999 FEW050 26/19 Q1003 R02/090070 R06/090070 NOSIG RMK R06/29004G07MPS QFE751
URSS 181400Z 29003MPS 9999 FEW050 27/20 Q1004 R02/090070 R06/090070 NOSIG RMK R06/31004MPS QFE751
URSS 181330Z 30004MPS 9999 FEW050 27/19 Q1004 R02/090070 R06/090070 NOSIG RMK R06/28005MPS QFE751
URSS 181300Z 28004MPS 9999 FEW050 27/19 Q1004 R02/090070 R06/090070 NOSIG RMK R06/28005MPS QFE752
URSS 181230Z 26004MPS 9999 FEW050 27/19 Q1004 R02/090070 R06/090070 NOSIG RMK R06/28005MPS QFE752
URSS 181200Z 26004MPS 9999 FEW050 26/19 Q1004 R02/090070 R06/090070 NOSIG RMK R06/28005MPS QFE752
URSS 181130Z 25004MPS 230V300 9999 FEW050 27/19 Q1004 R02/090070 R06/090070 NOSIG RMK R06/27004G07MPS QFE752
URSS 181100Z 25003MPS 210V290 9999 FEW050 28/19 Q1005 R02/090070 R06/090070 NOSIG RMK R06/27004G07MPS QFE752
URSS 181030Z 26003MPS 210V300 9999 FEW050 27/19 Q1005 R02/090070 R06/090070 NOSIG RMK R06/26004MPS QFE752
URSS 181000Z 27003MPS 220V300 9999 FEW050 27/18 Q1005 R02/090070 R06/090070 NOSIG RMK R06/26004G09MPS QFE752
URSS 180930Z 27003MPS 220V300 9999 FEW050 27/18 Q1005 R02/090070 R06/090070 NOSIG RMK R06/25003MPS QFE752
URSS 180900Z 26003MPS 9999 NSC 27/17 Q1005 R02/090070 R06/090070 NOSIG RMK R06/27004MPS QFE753
URSS 180830Z 23003MPS 9999 NSC 27/16 Q1005 R02/090070 R06/090070 NOSIG RMK R06/26004MPS QFE753
URSS 180800Z 21004MPS 9999 NSC 27/16 Q1006 R02/090070 R06/090070 NOSIG RMK R06/19003MPS QFE753
URSS 180730Z 24003MPS 9999 NSC 27/16 Q1006 R02/090070 R06/090070 NOSIG RMK R06/17003MPS QFE753
URSS 180700Z 34001MPS 9999 NSC 26/16 Q1006 R02/090070 R06/090070 NOSIG RMK R06/04001MPS QFE753
URSS 180630Z 01002MPS 290V070 9999 NSC 26/16 Q1006 R02/090070 R06/090070 NOSIG RMK R06/05002MPS QFE753
URSS 180600Z 04002MPS 9999 NSC 25/17 Q1006 R02/090070 R06/090070 NOSIG RMK R06/06002MPS QFE753
URSS 180530Z 03004MPS 9999 FEW040 24/16 Q1007 R02/090070 R06/090070 NOSIG RMK R06/07003MPS MT OBSC QFE754
URSS 180500Z 04004MPS 9999 FEW040 23/16 Q1007 R02/090070 R06/090070 NOSIG RMK R06/07004MPS MT OBSC QFE754
URSS 180430Z 07004MPS 9999 FEW040 23/17 Q1007 R06/090070 R02/090070 NOSIG RMK R02/05004MPS MT OBSC QFE754
URSS 180400Z 07004MPS 9999 FEW040 22/16 Q1007 R06/090070 R02/090070 NOSIG RMK R02/05004MPS MT OBSC QFE754
URSS 180330Z 07004MPS 9999 FEW040 21/16 Q1007 R06/090070 R02/090070 NOSIG RMK R02/05005MPS MT OBSC QFE754
URSS 180300Z 07002MPS 9999 FEW040 20/15 Q1007 R06/090070 R02/090070 NOSIG RMK R02/06004MPS MT OBSC QFE754
URSS 180230Z 08005MPS 9999 NSC 19/15 Q1007 R06/090070 R02/090070 NOSIG RMK R02/05005MPS QFE754
URSS 180200Z 08007MPS 9999 NSC 19/15 Q1007 R06/090070 R02/090070 NOSIG RMK R02/05004MPS QFE754
URSS 180130Z 08006MPS 9999 NSC 19/16 Q1007 R06/090070 R02/090070 NOSIG RMK R02/06004MPS QFE754
URSS 180100Z 08006MPS 9999 NSC 19/16 Q1007 R06/090070 R02/090070 NOSIG RMK R02/05004MPS QFE754
URSS 180030Z 08006MPS 9999 NSC 19/16 Q1007 R06/090070 R02/090070 NOSIG RMK R02/05004MPS QFE754
URSS 180000Z 08006MPS 9999 FEW026 19/17 Q1007 R06/090070 R02/090070 NOSIG RMK R02/06003MPS MT OBSC QFE754
URSS 172330Z 07005MPS 9999 FEW026 20/17 Q1007 R06/090070 R02/090070 NOSIG RMK R02/05003MPS MT OBSC QFE754
URSS 172300Z 08006MPS 9999 FEW026 20/17 Q1007 R06/090070 R02/090070 NOSIG RMK R02/05003MPS MT OBSC QFE754
URSS 172230Z 08006MPS 9999 FEW026 20/17 Q1008 R06/090070 R02/090070 NOSIG RMK R02/06004MPS MT OBSC QFE755
URSS 172200Z 07006MPS 9999 FEW026 20/17 Q1008 R06/090070 R02/090070 NOSIG RMK R02/05004MPS MT OBSC QFE755
URSS 172130Z 08006MPS 9999 FEW026 20/18 Q1009 R06/090070 R02/090070 NOSIG RMK R02/06004MPS MT OBSC QFE755
URSS 172100Z 07005MPS 9999 FEW026 20/18 Q1009 R06/090070 R02/090070 NOSIG RMK R02/05004MPS MT OBSC QFE755
URSS 172030Z 05004MPS 9999 NSC 20/18 Q1009 R02/090070 R06/090070 NOSIG RMK R06/07005MPS QFE755
URSS 172000Z 05003MPS 9999 FEW024 20/18 Q1009 R02/090070 R06/090070 NOSIG RMK R06/07005MPS MT OBSC QFE755
URSS 171930Z 05004MPS 9999 FEW024 21/18 Q1009 R02/090070 R06/090070 NOSIG RMK R06/08004MPS MT OBSC QFE755
URSS 171900Z 05003MPS 9999 21/19 Q1009 R02/090070 R06/090070 NOSIG RMK R06/07003MPS MT OBSC QFE755
URSS 171830Z 05003MPS 9999 FEW040CB SCT120 21/19 Q1009 R02/090070 R06/090070 NOSIG RMK R06/08003MPS MT OBSC QFE755
URSS 171800Z 05003MPS 9999 FEW040CB SCT120 21/19 Q1009 R02/090070 R06/090070 NOSIG RMK R06/07004MPS MT OBSC QFE755
URSS 171730Z 00000MPS 9999 FEW040CB SCT120 22/19 Q1009 R02/090070 R06/090070 NOSIG RMK R06/07003MPS MT OBSC QFE755
URSS 171700Z 00000MPS 9999 FEW040CB SCT120 23/19 Q1009 R02/090070 R06/090070 NOSIG RMK R06/11002MPS MT OBSC QFE755
URSS 171630Z 17002MPS 9999 FEW040CB SCT120 25/19 Q1009 R06/090070 R02/090070 NOSIG RMK R02/15001MPS MT OBSC QFE755
URSS 171600Z 17002MPS 140V220 9999 FEW040CB SCT120 25/19 Q1009 WS ALL RWY R06/090070 R02/090070 NOSIG RMK R02/14001MPS MT OBSC QFE756
URSS 171530Z 19003MPS 9999 FEW040CB BKN120 25/19 Q1009 WS ALL RWY R06/090070 R02/090070 NOSIG RMK R02/15002MPS MT OBSC QFE756
URSS 171500Z 19003MPS 9999 FEW040CB BKN120 25/19 Q1009 WS ALL RWY R06/090070 R02/090070 NOSIG RMK R02/17002MPS MT OBSC QFE756
URSS 171430Z 19004MPS 9999 FEW030CB BKN120 26/19 Q1009 WS ALL RWY R06/090070 R02/090070 NOSIG RMK R02/16003G06MPS MT OBSC QFE756
URSS 171400Z 17004MPS 9999 FEW030CB BKN120 26/20 Q1009 WS ALL RWY R06/090070 R02/090070 NOSIG RMK R02/16004MPS MT OBSC QFE756
URSS 171330Z 15005MPS 9999 FEW030CB BKN120 26/19 Q1009 WS ALL RWY R06/090070 R02/090070 NOSIG RMK R02/17004MPS MT OBSC QFE756
URSS 171300Z 17005MPS 9999 FEW030CB BKN120 26/20 Q1009 WS ALL RWY R06/090070 R02/090070 NOSIG RMK R02/18005MPS MT OBSC QFE756
URSS 171230Z 16005MPS 9999 FEW030CB BKN120 26/20 Q1009 WS ALL RWY R06/090070 R02/090070 NOSIG RMK R02/15004G07MPS MT OBSC QFE756
URSS 171200Z 16005MPS 9999 FEW030CB BKN120 26/18 Q1009 WS ALL RWY R06/090070 R02/090070 NOSIG RMK R02/15005G08MPS MT OBSC QFE756
URSS 171130Z 17005MPS 9999 SCT030CB BKN120 26/17 Q1009 WS ALL RWY R06/090070 R02/090070 NOSIG RMK R02/16004G07MPS MT OBSC QFE756
URSS 171100Z 17006MPS 9999 SCT030CB BKN120 25/19 Q1009 WS ALL RWY R06/090070 R02/090070 TEMPO -TSRA BKN020CB RMK R02/17005G08MPS MT OBSC QFE756
URSS 171030Z 16007MPS 9999 SCT030CB BKN120 25/19 Q1009 WS ALL RWY R06/090070 R02/090070 TEMPO -TSRA BKN020CB RMK R02/15005G09MPS MT OBSC QFE756
URSS 171000Z 17006MPS 9999 SCT030CB OVC120 24/20 Q1009 WS ALL RWY R06/090070 R02/090070 TEMPO -TSRA BKN020CB RMK R02/16004G07MPS MT OBSC QFE756
URSS 170930Z 15007MPS 9999 SCT030CB OVC120 25/19 Q1009 WS ALL RWY R06/090070 R02/090070 TEMPO -TSRA BKN020CB RMK R02/16005G08MPS MT OBSC QFE756
URSS 170900Z 14007MPS 9999 SCT025CB BKN120 25/19 Q1009 WS ALL RWY R06/090070 R02/090070 NOSIG RMK R02/16006G11MPS MT OBSC QFE756
URSS 170830Z 15007MPS 9999 FEW020 SCT050CB 26/18 Q1009 WS ALL RWY R06/090070 R02/090070 NOSIG RMK R02/13005G10MPS MT OBSC QFE756
URSS 170800Z 15006MPS 9999 FEW020 SCT050CB 25/18 Q1009 WS ALL RWY R06/090070 R02/090070 NOSIG RMK R02/13005G08MPS MT OBSC QFE756
URSS 170730Z 15007MPS 9999 SCT060CB 24/19 Q1009 WS ALL RWY R06/090070 R02/090070 TEMPO -TSRA BKN030CB RMK R02/14004G07MPS QFE755
URSS 170700Z 16007MPS 9999 SCT060CB 24/17 Q1009 WS ALL RWY R06/090070 R02/090070 TEMPO -TSRA BKN030CB RMK R02/15004G08MPS QFE756
URSS 170630Z 14005MPS 100V170 9999 SCT060CB 25/18 Q1008 WS ALL RWY R02/090070 R06/090070 TEMPO -TSRA BKN030CB RMK R06/13007MPS QFE755
URSS 170600Z 16004MPS 120V200 9999 FEW060CB 24/16 Q1009 WS ALL RWY R02/090070 R06/090070 TEMPO -TSRA BKN030CB RMK R06/15004MPS QFE755
URSS 170530Z 04003MPS 9999 NSC 23/16 Q1009 WS ALL RWY R02/090070 R06/090070 TEMPO -TSRA BKN030CB RMK R06/08004MPS QFE755
URSS 170500Z 05004MPS 9999 NSC 22/16 Q1009 WS ALL RWY R02/090070 R06/090070 NOSIG RMK R06/07005MPS QFE755
URSS 170430Z 05003MPS 9999 SCT100 20/17 Q1009 WS ALL RWY R02/090070 R06/090070 NOSIG RMK R06/08004MPS QFE755
URSS 170400Z 04004MPS 9999 BKN100 21/17 Q1009 WS ALL RWY R02/090070 R06/090070 NOSIG RMK R06/06005MPS QFE755
URSS 170330Z 05003MPS 9999 FEW050CB SCT110 19/17 Q1009 WS ALL RWY R02/090070 R06/090070 NOSIG RMK R06/07005MPS QFE755
URSS 170300Z 05003MPS 9999 FEW050CB SCT100 18/16 Q1009 WS ALL RWY R02/090070 R06/090070 NOSIG RMK R06/08006MPS QFE755
URSS 170230Z 06004MPS 9999 SCT050CB BKN100 18/16 Q1008 WS ALL RWY R02/090070 R06/090070 NOSIG RMK R06/07005MPS QFE755
URSS 170200Z 05003MPS 9999 SCT050CB BKN100 18/16 Q1008 WS ALL RWY R02/220155 R06/220155 NOSIG RMK R06/08005MPS QFE755
URSS 170130Z 05003MPS 9999 SCT050CB OVC083 18/16 Q1008 WS ALL RWY R02/220155 R06/220155 NOSIG RMK R06/08005MPS QFE755
URSS 170100Z 05003MPS 9999 SCT040CB OVC110 18/16 Q1008 WS ALL RWY R02/220155 R06/220155 NOSIG RMK R06/08006MPS MT OBSC QFE755
URSS 170030Z 06002MPS 9999 VCTS SCT040CB OVC110 18/17 Q1009 WS ALL RWY R02/220550 R06/220550 NOSIG RMK R06/08005MPS MT OBSC QFE755